createdAt,value
2019-02-24T00:00:01.491Z,5.43
2019-02-24T00:02:52.368Z,5.60
2019-02-24T00:05:35.826Z,5.63
2019-02-24T00:08:26.719Z,5.00
2019-02-24T00:11:10.571Z,5.20
2019-02-24T00:14:01.497Z,5.23
2019-02-24T00:16:45.401Z,4.70
2019-02-24T00:19:36.311Z,5.30
2019-02-24T00:22:19.636Z,5.10
2019-02-24T00:25:10.559Z,4.80
2019-02-24T00:27:54.114Z,5.20
2019-02-24T00:30:45.059Z,5.60
2019-02-24T00:33:28.218Z,5.23
2019-02-24T00:36:19.187Z,4.87
2019-02-24T00:39:02.338Z,5.33
2019-02-24T00:41:53.305Z,4.63
2019-02-24T00:44:36.558Z,5.00
2019-02-24T00:47:27.494Z,4.83
2019-02-24T00:50:11.395Z,5.20
2019-02-24T00:52:54.688Z,5.10
2019-02-24T00:55:47.235Z,4.97
2019-02-24T00:58:30.765Z,4.73
2019-02-24T01:01:21.673Z,4.90
2019-02-24T01:04:05.614Z,4.73
2019-02-24T01:06:56.548Z,4.30
2019-02-24T01:09:59.123Z,4.73
2019-02-24T01:12:50.055Z,4.53
2019-02-24T01:15:33.569Z,4.80
2019-02-24T01:18:24.469Z,4.80
2019-02-24T01:21:07.722Z,4.63
2019-02-24T01:23:58.704Z,5.07
2019-02-24T01:26:42.046Z,4.33
2019-02-24T01:29:32.996Z,4.67
2019-02-24T01:32:16.806Z,4.27
2019-02-24T01:35:08.442Z,4.47
2019-02-24T01:37:52.075Z,4.20
2019-02-24T01:40:43.008Z,4.37
2019-02-24T01:43:26.881Z,4.30
2019-02-24T01:46:17.827Z,4.77
2019-02-24T01:49:01.033Z,4.33
2019-02-24T01:51:44.777Z,3.90
2019-02-24T01:54:35.739Z,4.30
2019-02-24T01:57:19.128Z,4.13
2019-02-24T02:03:33.474Z,4.53
2019-02-24T02:06:17.067Z,4.33
2019-02-24T02:09:08.010Z,4.37
2019-02-24T02:11:51.578Z,4.10
2019-02-24T02:14:42.519Z,4.00
2019-02-24T02:17:26.073Z,3.83
2019-02-24T02:20:16.987Z,3.93
2019-02-24T02:23:00.931Z,4.27
2019-02-24T02:25:51.883Z,4.43
2019-02-24T02:28:44.141Z,4.50
2019-02-24T02:31:46.946Z,4.77
2019-02-24T02:34:38.020Z,5.27
2019-02-24T02:37:22.099Z,4.73
2019-02-24T02:40:13.036Z,5.50
2019-02-24T02:42:56.506Z,5.87
2019-02-24T02:45:47.452Z,5.90
2019-02-24T02:48:31.364Z,5.60
2019-02-24T02:51:22.321Z,6.00
2019-02-24T02:54:05.505Z,6.27
2019-02-24T02:56:56.464Z,5.90
2019-02-24T02:59:59.279Z,6.00
2019-02-24T03:02:50.201Z,5.80
2019-02-24T03:05:34.039Z,5.73
2019-02-24T03:08:43.913Z,5.93
2019-02-24T03:11:27.271Z,6.13
2019-02-24T03:14:18.200Z,6.90
2019-02-24T03:17:01.641Z,6.97
2019-02-24T03:19:52.566Z,6.70
2019-02-24T03:22:36.452Z,6.37
2019-02-24T03:25:28.340Z,6.20
2019-02-24T03:28:31.229Z,6.13
2019-02-24T03:31:22.293Z,6.40
2019-02-24T03:34:06.236Z,6.10
2019-02-24T03:36:57.160Z,6.40
2019-02-24T03:39:40.421Z,6.00
2019-02-24T03:42:31.317Z,6.20
2019-02-24T03:45:14.581Z,6.40
2019-02-24T03:48:05.504Z,6.37
2019-02-24T03:50:49.291Z,5.83
2019-02-24T03:53:33.330Z,5.43
2019-02-24T03:56:24.293Z,5.83
2019-02-24T03:59:15.123Z,5.73
2019-02-24T04:02:00.529Z,5.53
2019-02-24T04:04:44.055Z,6.47
2019-02-24T04:07:34.967Z,5.80
2019-02-24T04:10:18.742Z,5.97
2019-02-24T04:13:09.633Z,6.40
2019-02-24T04:15:53.217Z,6.07
2019-02-24T04:18:44.135Z,6.70
2019-02-24T04:21:27.563Z,6.30
2019-02-24T04:24:18.491Z,6.67
2019-02-24T04:27:02.370Z,6.37
2019-02-24T04:30:12.351Z,7.10
2019-02-24T04:32:56.232Z,6.20
2019-02-24T04:35:47.184Z,6.73
2019-02-24T04:38:31.044Z,6.73
2019-02-24T04:41:22.005Z,6.77
2019-02-24T04:44:05.115Z,7.27
2019-02-24T04:46:56.050Z,6.83
2019-02-24T04:49:39.484Z,7.03
2019-02-24T04:52:30.419Z,7.13
2019-02-24T04:55:14.056Z,7.07
2019-02-24T04:58:04.968Z,6.87
2019-02-24T05:00:48.114Z,6.90
2019-02-24T05:03:39.059Z,6.33
2019-02-24T05:06:22.661Z,6.50
2019-02-24T05:09:13.556Z,7.50
2019-02-24T05:11:57.485Z,6.77
2019-02-24T05:14:48.384Z,7.23
2019-02-24T05:17:32.213Z,6.90
2019-02-24T05:23:50.314Z,7.33
2019-02-24T05:26:41.209Z,6.97
2019-02-24T05:29:32.144Z,7.10
2019-02-24T05:32:15.941Z,7.43
2019-02-24T05:35:06.888Z,6.57
2019-02-24T05:37:50.415Z,7.20
2019-02-24T05:40:41.359Z,6.93
2019-02-24T05:43:44.601Z,7.10
2019-02-24T05:46:35.557Z,6.63
2019-02-24T05:49:26.497Z,6.83
2019-02-24T05:52:09.661Z,7.00
2019-02-24T05:55:00.749Z,7.53
2019-02-24T05:57:44.694Z,6.30
2019-02-24T06:00:35.627Z,5.83
2019-02-24T06:03:26.612Z,6.60
2019-02-24T06:06:10.472Z,6.53
2019-02-24T06:09:01.430Z,7.77
2019-02-24T06:11:45.597Z,6.93
2019-02-24T06:14:36.506Z,7.37
2019-02-24T06:17:19.636Z,6.73
2019-02-24T06:20:10.577Z,7.07
2019-02-24T06:22:54.540Z,7.77
2019-02-24T06:25:45.488Z,6.53
2019-02-24T06:28:28.901Z,7.00
2019-02-24T06:31:19.818Z,6.93
2019-02-24T06:34:03.707Z,6.83
2019-02-24T06:36:54.654Z,6.60
2019-02-24T06:39:38.096Z,6.37
2019-02-24T06:42:29.052Z,6.80
2019-02-24T06:45:12.409Z,7.40
2019-02-24T06:48:03.391Z,6.63
2019-02-24T06:51:05.667Z,7.03
2019-02-24T06:53:56.597Z,7.50
2019-02-24T06:56:39.969Z,7.93
2019-02-24T06:59:30.963Z,8.37
2019-02-24T07:02:21.907Z,8.80
2019-02-24T07:05:06.054Z,8.80
2019-02-24T07:07:56.977Z,8.97
2019-02-24T07:10:41.162Z,8.40
2019-02-24T07:13:32.078Z,7.97
2019-02-24T07:16:16.108Z,8.53
2019-02-24T07:19:07.028Z,8.43
2019-02-24T07:21:50.478Z,7.50
2019-02-24T07:24:41.459Z,6.87
2019-02-24T07:27:24.817Z,7.17
2019-02-24T07:30:23.099Z,6.43
2019-02-24T07:33:20.285Z,5.80
2019-02-24T07:36:11.204Z,5.47
2019-02-24T07:38:55.300Z,5.40
2019-02-24T07:41:46.226Z,5.60
2019-02-24T07:44:49.025Z,4.93
2019-02-24T07:47:39.930Z,4.83
2019-02-24T07:50:24.052Z,6.50
2019-02-24T07:53:15.010Z,5.53
2019-02-24T07:55:58.498Z,6.07
2019-02-24T07:58:42.356Z,5.87
2019-02-24T08:01:33.281Z,4.80
2019-02-24T08:04:17.350Z,5.60
2019-02-24T08:10:17.529Z,5.37
2019-02-24T08:13:08.480Z,5.40
2019-02-24T08:15:52.018Z,5.10
2019-02-24T08:18:49.214Z,5.53
2019-02-24T08:21:47.186Z,5.03
2019-02-24T08:24:38.128Z,4.50
2019-02-24T08:27:21.410Z,4.43
2019-02-24T08:30:12.490Z,4.37
2019-02-24T08:32:56.287Z,3.90
2019-02-24T08:35:47.174Z,3.80
2019-02-24T08:38:30.254Z,4.30
2019-02-24T08:41:21.170Z,3.80
2019-02-24T08:44:04.498Z,3.80
2019-02-24T08:46:55.440Z,4.00
2019-02-24T08:49:38.758Z,4.37
2019-02-24T08:52:29.718Z,6.83
2019-02-24T08:55:13.694Z,5.77
2019-02-24T08:58:04.658Z,5.00
2019-02-24T09:00:50.931Z,4.37
2019-02-24T09:03:41.049Z,3.87
2019-02-24T09:06:26.683Z,4.87
2019-02-24T09:09:17.632Z,4.57
2019-02-24T09:12:01.519Z,4.17
2019-02-24T09:14:52.448Z,4.30
2019-02-24T09:17:36.163Z,4.77
2019-02-24T09:20:27.121Z,4.50
2019-02-24T09:23:10.970Z,4.73
2019-02-24T09:26:01.911Z,4.17
2019-02-24T09:28:47.204Z,4.63
2019-02-24T09:31:38.164Z,3.97
2019-02-24T09:34:21.784Z,4.50
2019-02-24T09:37:12.729Z,4.00
2019-02-24T09:39:56.721Z,3.73
2019-02-24T09:42:47.661Z,4.23
2019-02-24T09:45:30.858Z,3.80
2019-02-24T09:48:21.875Z,3.60
2019-02-24T09:51:05.196Z,3.20
2019-02-24T09:53:56.155Z,3.00
2019-02-24T09:56:40.011Z,2.73
2019-02-24T09:59:30.940Z,3.07
2019-02-24T10:02:14.966Z,3.20
2019-02-24T10:05:06.015Z,2.70
2019-02-24T10:08:10.076Z,2.90
2019-02-24T10:11:01.049Z,3.17
2019-02-24T10:13:44.305Z,3.07
2019-02-24T10:19:37.705Z,3.80
2019-02-24T10:22:28.614Z,3.03
2019-02-24T10:25:12.278Z,2.73
2019-02-24T10:28:03.210Z,3.00
2019-02-24T10:30:46.670Z,3.00
2019-02-24T10:33:37.559Z,2.80
2019-02-24T10:36:21.378Z,3.47
2019-02-24T10:39:13.929Z,2.87
2019-02-24T10:41:57.572Z,2.80
2019-02-24T10:44:48.483Z,3.27
2019-02-24T10:47:32.005Z,2.87
2019-02-24T10:50:22.925Z,2.50
2019-02-24T10:53:06.859Z,2.60
2019-02-24T10:55:57.794Z,2.47
2019-02-24T10:58:41.727Z,2.40
2019-02-24T11:01:32.642Z,2.40
2019-02-24T11:04:16.488Z,2.27
2019-02-24T11:07:07.455Z,2.37
2019-02-24T11:09:51.091Z,2.50
2019-02-24T11:12:41.993Z,2.40
2019-02-24T11:15:32.957Z,2.17
2019-02-24T11:18:16.745Z,2.40
2019-02-24T11:21:07.665Z,2.33
2019-02-24T11:23:51.629Z,2.37
2019-02-24T11:26:35.574Z,2.80
2019-02-24T11:29:26.490Z,2.83
2019-02-24T11:32:09.630Z,2.60
2019-02-24T11:35:00.548Z,2.07
2019-02-24T11:37:44.578Z,2.30
2019-02-24T11:40:27.695Z,2.40
2019-02-24T11:43:18.609Z,2.43
2019-02-24T11:46:02.680Z,2.53
2019-02-24T11:48:54.168Z,2.30
2019-02-24T11:51:37.266Z,2.00
2019-02-24T11:54:28.171Z,2.40
2019-02-24T11:57:12.163Z,2.20
2019-02-24T12:03:26.732Z,2.30
2019-02-24T12:06:17.679Z,2.20
2019-02-24T12:09:05.259Z,2.20
2019-02-24T12:11:53.526Z,2.33
2019-02-24T12:14:37.442Z,2.43
2019-02-24T12:17:28.404Z,2.27
2019-02-24T12:20:11.939Z,2.40
2019-02-24T12:23:02.885Z,2.30
2019-02-24T12:25:46.708Z,2.10
2019-02-24T12:28:37.651Z,2.30
2019-02-24T12:31:21.507Z,2.20
2019-02-24T12:34:12.428Z,2.10
2019-02-24T12:36:56.470Z,2.40
2019-02-24T12:39:47.392Z,2.20
2019-02-24T12:42:31.282Z,6.13
2019-02-24T12:48:30.506Z,2.17
2019-02-24T12:51:21.469Z,2.23
2019-02-24T12:54:05.320Z,2.70
2019-02-24T12:56:56.272Z,2.30
2019-02-24T12:59:40.181Z,2.17
2019-02-24T13:02:49.972Z,2.90
2019-02-24T13:05:33.227Z,2.33
2019-02-24T13:08:24.176Z,2.37
2019-02-24T13:11:08.326Z,2.07
2019-02-24T13:13:59.267Z,1.90
2019-02-24T13:16:42.876Z,2.37
2019-02-24T13:19:33.808Z,2.10
2019-02-24T13:22:17.228Z,2.00
2019-02-24T13:25:09.820Z,2.20
2019-02-24T13:28:12.722Z,2.03
2019-02-24T13:31:03.669Z,1.93
2019-02-24T13:33:54.612Z,1.73
2019-02-24T13:36:45.557Z,2.07
2019-02-24T13:39:28.848Z,2.30
2019-02-24T13:45:28.206Z,2.70
2019-02-24T13:48:19.160Z,2.00
2019-02-24T13:51:02.591Z,2.50
2019-02-24T13:53:53.555Z,2.47
2019-02-24T13:56:56.142Z,1.80
2019-02-24T13:59:47.067Z,1.97
2019-02-24T14:02:30.199Z,2.23
2019-02-24T14:05:21.119Z,12.87
2019-02-24T14:08:04.858Z,6.70
2019-02-24T14:10:48.254Z,2.50
2019-02-24T14:13:39.170Z,18.60
2019-02-24T14:16:23.227Z,3.37
2019-02-24T14:19:14.160Z,2.17
2019-02-24T14:21:58.041Z,2.13
2019-02-24T14:24:48.976Z,2.10
2019-02-24T14:27:32.743Z,2.40
2019-02-24T14:30:23.690Z,1.97
2019-02-24T14:33:07.643Z,2.00
2019-02-24T14:35:58.615Z,2.20
2019-02-24T14:38:41.950Z,2.17
2019-02-24T14:41:32.918Z,2.30
2019-02-24T14:44:16.274Z,2.30
2019-02-24T14:47:00.106Z,2.40
2019-02-24T14:49:51.048Z,3.50
2019-02-24T14:52:35.031Z,2.70
2019-02-24T14:55:25.998Z,2.60
2019-02-24T14:58:09.257Z,2.37
2019-02-24T15:01:00.835Z,2.43
2019-02-24T15:04:05.047Z,2.10
2019-02-24T15:06:55.954Z,2.60
2019-02-24T15:09:39.787Z,2.07
2019-02-24T15:12:30.705Z,2.40
2019-02-24T15:15:15.453Z,2.70
2019-02-24T15:18:06.313Z,2.90
2019-02-24T15:20:50.118Z,2.40
2019-02-24T15:23:22.714Z,2.40
2019-02-24T15:26:07.016Z,2.33
2019-02-24T15:28:57.864Z,2.20
2019-02-24T15:31:41.659Z,2.30
2019-02-24T15:34:32.562Z,2.60
2019-02-24T15:37:16.352Z,2.40
2019-02-24T15:40:07.816Z,2.50
2019-02-24T15:43:11.152Z,2.37
2019-02-24T15:46:02.087Z,2.80
2019-02-24T15:48:45.966Z,2.73
2019-02-24T15:51:36.915Z,2.97
2019-02-24T15:54:20.680Z,2.93
2019-02-24T15:57:11.631Z,2.93
2019-02-24T16:00:15.716Z,2.67
2019-02-24T16:03:06.665Z,2.40
2019-02-24T16:05:50.693Z,3.00
2019-02-24T16:08:41.621Z,2.97
2019-02-24T16:11:25.463Z,2.90
2019-02-24T16:14:16.443Z,2.67
2019-02-24T16:16:59.613Z,2.70
2019-02-24T16:19:50.573Z,2.40
2019-02-24T16:22:34.100Z,2.30
2019-02-24T16:25:25.113Z,2.50
2019-02-24T16:28:16.032Z,2.43
2019-02-24T16:30:59.528Z,2.50
2019-02-24T16:33:50.500Z,2.60
2019-02-24T16:36:34.247Z,2.37
2019-02-24T16:39:25.206Z,2.37
2019-02-24T16:42:08.451Z,3.00
2019-02-24T16:44:59.376Z,2.30
2019-02-24T16:47:43.220Z,2.57
2019-02-24T16:50:34.105Z,2.10
2019-02-24T16:53:18.035Z,2.63
2019-02-24T16:56:08.977Z,2.10
2019-02-24T16:58:52.913Z,2.20
2019-02-24T17:01:43.830Z,2.13
2019-02-24T17:04:27.525Z,2.23
2019-02-24T17:07:18.437Z,2.13
2019-02-24T17:10:01.975Z,2.50
2019-02-24T17:12:52.938Z,2.40
2019-02-24T17:15:36.384Z,2.50
2019-02-24T17:18:27.349Z,2.40
2019-02-24T17:21:11.210Z,2.73
2019-02-24T17:24:02.231Z,2.43
2019-02-24T17:26:45.491Z,2.43
2019-02-24T17:29:36.450Z,2.30
2019-02-24T17:32:20.326Z,2.33
2019-02-24T17:35:11.375Z,3.00
2019-02-24T17:37:55.384Z,2.60
2019-02-24T17:40:46.340Z,2.67
2019-02-24T17:43:29.699Z,3.07
2019-02-24T17:46:20.632Z,3.00
2019-02-24T17:49:04.183Z,2.90
2019-02-24T17:51:55.112Z,2.57
2019-02-24T17:54:38.298Z,2.70
2019-02-24T17:57:29.235Z,4.10
2019-02-24T18:00:14.723Z,3.20
2019-02-24T18:03:06.501Z,3.07
2019-02-24T18:05:50.243Z,3.00
2019-02-24T18:08:41.192Z,2.97
2019-02-24T18:11:24.438Z,3.43
2019-02-24T18:14:15.399Z,3.30
2019-02-24T18:16:59.158Z,4.07
2019-02-24T18:19:50.103Z,3.87
2019-02-24T18:22:33.807Z,3.70
2019-02-24T18:25:24.771Z,4.33
2019-02-24T18:28:08.438Z,4.20
2019-02-24T18:30:59.366Z,4.47
2019-02-24T18:33:50.350Z,4.30
2019-02-24T18:36:33.750Z,4.87
2019-02-24T18:39:24.822Z,4.33
2019-02-24T18:42:08.527Z,4.20
2019-02-24T18:44:59.521Z,4.30
2019-02-24T18:48:02.261Z,4.60
2019-02-24T18:50:53.206Z,4.60
2019-02-24T18:53:36.873Z,4.70
2019-02-24T18:56:27.803Z,4.20
2019-02-24T18:59:11.734Z,4.37
2019-02-24T19:02:02.672Z,4.40
2019-02-24T19:04:46.406Z,4.33
2019-02-24T19:07:37.410Z,4.17
2019-02-24T19:10:21.471Z,3.90
2019-02-24T19:16:21.382Z,4.33
2019-02-24T19:19:12.399Z,4.87
2019-02-24T19:21:56.082Z,4.40
2019-02-24T19:24:41.794Z,5.17
2019-02-24T19:27:32.883Z,4.83
2019-02-24T19:30:16.252Z,5.47
2019-02-24T19:33:07.238Z,4.63
2019-02-24T19:35:50.795Z,5.30
2019-02-24T19:38:41.745Z,5.20
2019-02-24T19:41:25.612Z,4.30
2019-02-24T19:44:16.694Z,4.73
2019-02-24T19:47:00.140Z,5.40
2019-02-24T19:49:51.119Z,5.03
2019-02-24T19:52:53.969Z,5.33
2019-02-24T19:55:44.905Z,5.10
2019-02-24T19:58:28.757Z,5.00
2019-02-24T20:01:19.777Z,4.87
2019-02-24T20:04:03.304Z,4.67
2019-02-24T20:06:54.301Z,4.83
2019-02-24T20:09:41.685Z,5.27
2019-02-24T20:12:35.935Z,4.70
2019-02-24T20:15:19.730Z,5.30
2019-02-24T20:18:10.768Z,5.20
2019-02-24T20:20:54.191Z,5.00
2019-02-24T20:23:45.800Z,4.53
2019-02-24T20:26:36.767Z,4.83
2019-02-24T20:29:27.744Z,5.50
2019-02-24T20:32:11.819Z,4.60
2019-02-24T20:35:02.795Z,4.87
2019-02-24T20:37:46.721Z,5.23
2019-02-24T20:40:30.595Z,4.67
2019-02-24T20:43:21.590Z,4.53
2019-02-24T20:46:05.585Z,4.73
2019-02-24T20:48:56.555Z,5.00
2019-02-24T20:51:40.337Z,5.03
2019-02-24T20:54:31.277Z,4.30
2019-02-24T20:57:14.489Z,4.67
2019-02-24T21:00:11.899Z,4.90
2019-02-24T21:03:02.937Z,4.47
2019-02-24T21:05:47.129Z,4.40
2019-02-24T21:08:38.116Z,4.30
2019-02-24T21:11:40.704Z,4.47
2019-02-24T21:14:31.629Z,4.40
2019-02-24T21:17:15.345Z,4.13
2019-02-24T21:20:09.112Z,4.27
2019-02-24T21:23:00.013Z,4.40
2019-02-24T21:25:44.088Z,4.53
2019-02-24T21:28:35.017Z,4.20
2019-02-24T21:31:18.463Z,4.80
2019-02-24T21:34:09.438Z,4.73
2019-02-24T21:36:52.620Z,4.40
2019-02-24T21:39:43.541Z,4.77
2019-02-24T21:42:27.514Z,4.67
2019-02-24T21:45:19.344Z,4.53
2019-02-24T21:48:03.426Z,4.50
2019-02-24T21:50:54.335Z,4.93
2019-02-24T21:53:38.167Z,4.80
2019-02-24T21:56:29.117Z,5.57
2019-02-24T21:59:12.576Z,5.43
2019-02-24T22:02:03.491Z,5.37
2019-02-24T22:04:47.548Z,5.33
2019-02-24T22:07:38.469Z,5.53
2019-02-24T22:10:21.946Z,5.87
2019-02-24T22:13:12.841Z,5.80
2019-02-24T22:15:55.917Z,6.10
2019-02-24T22:18:46.854Z,5.87
2019-02-24T22:21:30.692Z,6.83
2019-02-24T22:24:21.647Z,6.90
2019-02-24T22:27:05.668Z,7.30
2019-02-24T22:30:16.823Z,6.80
2019-02-24T22:33:00.314Z,6.90
2019-02-24T22:35:51.280Z,6.73
2019-02-24T22:38:34.407Z,6.67
2019-02-24T22:41:25.360Z,8.43
2019-02-24T22:44:08.543Z,7.30
2019-02-24T22:46:59.506Z,6.97
2019-02-24T22:49:42.960Z,6.83
2019-02-24T22:52:34.225Z,6.60
2019-02-24T22:55:17.752Z,7.10
2019-02-24T22:58:08.670Z,7.67
2019-02-24T23:04:19.168Z,6.97
2019-02-24T23:07:02.970Z,7.57
2019-02-24T23:09:53.911Z,7.83
2019-02-24T23:12:37.970Z,7.20
2019-02-24T23:15:28.885Z,6.50
2019-02-24T23:18:12.453Z,6.07
2019-02-24T23:21:03.324Z,6.67
2019-02-24T23:23:46.886Z,7.00
2019-02-24T23:26:37.764Z,6.80
2019-02-24T23:29:28.627Z,6.67
2019-02-24T23:32:12.601Z,6.60
2019-02-24T23:38:30.567Z,6.60
2019-02-24T23:41:21.474Z,5.40
2019-02-24T23:44:12.450Z,6.80
2019-02-24T23:46:56.462Z,7.20
2019-02-24T23:49:47.413Z,6.07
2019-02-24T23:52:31.126Z,6.90
2019-02-24T23:55:22.077Z,6.97
2019-02-24T23:58:05.431Z,5.90
